This is the latest recevied weather packets stored in our database for station/object K5NWZ. If no packets are shown the sender has not sent any weather packets the latest 10 day(s).
| Time | Temp. | Humidity | Pressure | Rain* | Wind** | Luminosity | Snow |
|---|---|---|---|---|---|---|---|
| 1787496199 | 22.22° C | 72% | 1029.9 hPa | 0 mm | - | 252 W/m² | - |
| 1787495898 | 21.67° C | 74% | 1029.9 hPa | 0 mm | - | 236 W/m² | - |
| 1787495594 | 21.11° C | 77% | 1030.1 hPa | 0 mm | - | 160 W/m² | - |
| 1787495290 | 20° C | 81% | 1029.9 hPa | 0 mm | - | 236 W/m² | - |
| 1787494986 | 20° C | 81% | 1029.9 hPa | 0 mm | - | 64 W/m² | - |
| 1787494686 | 20° C | 80% | 1029.9 hPa | 0 mm | - | 62 W/m² | - |
| 1787494376 | 20.56° C | 78% | 1029.8 hPa | 0 mm | - | 60 W/m² | - |
| 1787494072 | 21.11° C | 76% | 1029.9 hPa | 0 mm | - | 56 W/m² | - |
| 1787493768 | 21.11° C | 75% | 1029.9 hPa | 0 mm | - | 75 W/m² | - |
| 1787493467 | 22.22° C | 71% | 1030.1 hPa | 0 mm | - | 142 W/m² | - |
| 1787493163 | 21.67° C | 72% | 1029.8 hPa | 0 mm | - | 178 W/m² | - |
| 1787492858 | 21.67° C | 73% | 1030.1 hPa | 0 mm | - | 148 W/m² | - |
| 1787492555 | 20.56° C | 75% | 1030.1 hPa | 0 mm | - | 133 W/m² | - |
| 1787492250 | 20.56° C | 75% | 1030.1 hPa | 0 mm | - | 118 W/m² | - |
| 1787491945 | 20° C | 77% | 1030.1 hPa | 0 mm | - | 102 W/m² | - |
| 1787491640 | 20° C | 77% | 1029.9 hPa | 0 mm | - | 63 W/m² | - |
| 1787491335 | 19.44° C | 79% | 1029.9 hPa | 0 mm | - | 77 W/m² | - |
| 1787491031 | 18.89° C | 81% | 1029.6 hPa | 0 mm | - | 74 W/m² | - |
| 1787490727 | 18.89° C | 82% | 1029.5 hPa | 0 mm | - | 49 W/m² | - |
| 1787490426 | 18.89° C | 82% | 1029.5 hPa | 0 mm | - | 40 W/m² | - |
| 1787490125 | 18.89° C | 82% | 1029.4 hPa | 0 mm | - | 31 W/m² | - |
| 1787489820 | 18.33° C | 83% | 1029.7 hPa | 0 mm | - | 29 W/m² | - |
| 1787489515 | 18.33° C | 83% | 1029.5 hPa | 0 mm | - | 25 W/m² | - |
| 1787489212 | 18.33° C | 85% | 1029.6 hPa | 0 mm | - | 21 W/m² | - |
| 1787488907 | 17.78° C | 85% | 1029.1 hPa | 0 mm | - | 15 W/m² | - |
* Rain latest hour (hover to see other rain measurements)
** Current wind speed in m/s (hover to see current wind gust speed)